sensor_id;sensor_type;location;lat;lon;timestamp;noise_LAeq;noise_LA_min;noise_LA_max;noise_LA01;noise_LA95
74234;Laerm;62591;55.764;37.718;2023-05-29T00:00:56;42.56;36.63;49.73;;
74234;Laerm;62591;55.764;37.718;2023-05-29T00:03:25;44.87;35.97;50.78;;
74234;Laerm;62591;55.764;37.718;2023-05-29T00:06:18;43.24;36.98;52.92;;
74234;Laerm;62591;55.764;37.718;2023-05-29T00:08:48;44.77;36.86;56.63;;
74234;Laerm;62591;55.764;37.718;2023-05-29T00:11:36;41.08;36.18;50.64;;
74234;Laerm;62591;55.764;37.718;2023-05-29T00:14:11;40.57;35.43;47.90;;
74234;Laerm;62591;55.764;37.718;2023-05-29T00:16:41;41.84;36.91;57.11;;
74234;Laerm;62591;55.764;37.718;2023-05-29T00:19:11;40.43;36.02;54.95;;
74234;Laerm;62591;55.764;37.718;2023-05-29T00:21:40;42.68;36.04;51.95;;
74234;Laerm;62591;55.764;37.718;2023-05-29T00:24:10;44.76;40.03;50.75;;
74234;Laerm;62591;55.764;37.718;2023-05-29T00:26:38;43.79;38.50;51.18;;
74234;Laerm;62591;55.764;37.718;2023-05-29T00:29:07;40.17;35.79;50.23;;
74234;Laerm;62591;55.764;37.718;2023-05-29T00:31:36;41.65;35.40;51.21;;
74234;Laerm;62591;55.764;37.718;2023-05-29T00:34:05;42.05;36.97;48.55;;
74234;Laerm;62591;55.764;37.718;2023-05-29T00:37:00;43.30;38.45;52.42;;
74234;Laerm;62591;55.764;37.718;2023-05-29T00:39:46;43.56;37.44;53.46;;
74234;Laerm;62591;55.764;37.718;2023-05-29T00:42:14;47.20;36.95;61.49;;
74234;Laerm;62591;55.764;37.718;2023-05-29T00:44:44;40.74;35.99;55.67;;
74234;Laerm;62591;55.764;37.718;2023-05-29T00:47:13;41.74;35.97;51.75;;
74234;Laerm;62591;55.764;37.718;2023-05-29T00:50:01;43.16;36.33;56.75;;
74234;Laerm;62591;55.764;37.718;2023-05-29T00:52:48;41.71;36.56;52.62;;
74234;Laerm;62591;55.764;37.718;2023-05-29T00:55:34;43.79;37.40;51.17;;
74234;Laerm;62591;55.764;37.718;2023-05-29T00:58:18;40.87;36.58;55.18;;
74234;Laerm;62591;55.764;37.718;2023-05-29T01:00:47;43.84;36.64;52.67;;
74234;Laerm;62591;55.764;37.718;2023-05-29T01:03:38;39.72;35.25;44.92;;
74234;Laerm;62591;55.764;37.718;2023-05-29T01:06:08;40.32;35.91;50.38;;
74234;Laerm;62591;55.764;37.718;2023-05-29T01:08:37;41.95;36.34;50.51;;
74234;Laerm;62591;55.764;37.718;2023-05-29T01:11:32;40.96;36.18;51.32;;
74234;Laerm;62591;55.764;37.718;2023-05-29T01:14:23;41.18;36.10;51.35;;
74234;Laerm;62591;55.764;37.718;2023-05-29T01:17:00;41.52;36.60;50.79;;
74234;Laerm;62591;55.764;37.718;2023-05-29T01:19:46;41.08;36.38;52.03;;
74234;Laerm;62591;55.764;37.718;2023-05-29T01:22:54;39.60;35.65;49.51;;
74234;Laerm;62591;55.764;37.718;2023-05-29T01:25:36;47.05;35.98;55.97;;
74234;Laerm;62591;55.764;37.718;2023-05-29T01:28:33;41.53;37.38;49.97;;
74234;Laerm;62591;55.764;37.718;2023-05-29T01:31:15;44.53;37.34;55.79;;
74234;Laerm;62591;55.764;37.718;2023-05-29T01:33:59;43.68;37.76;57.39;;
74234;Laerm;62591;55.764;37.718;2023-05-29T01:36:28;43.11;37.42;60.71;;
74234;Laerm;62591;55.764;37.718;2023-05-29T01:38:58;40.73;36.52;45.69;;
74234;Laerm;62591;55.764;37.718;2023-05-29T01:41:29;41.58;37.57;48.01;;
74234;Laerm;62591;55.764;37.718;2023-05-29T01:44:00;42.92;37.33;50.77;;
74234;Laerm;62591;55.764;37.718;2023-05-29T01:46:47;41.34;37.36;49.25;;
74234;Laerm;62591;55.764;37.718;2023-05-29T01:49:16;43.30;38.20;61.60;;
74234;Laerm;62591;55.764;37.718;2023-05-29T01:51:50;44.85;38.78;68.90;;
74234;Laerm;62591;55.764;37.718;2023-05-29T01:54:42;42.03;37.81;57.13;;
74234;Laerm;62591;55.764;37.718;2023-05-29T01:57:11;43.28;39.03;49.42;;
74234;Laerm;62591;55.764;37.718;2023-05-29T01:59:42;46.09;39.38;53.82;;
74234;Laerm;62591;55.764;37.718;2023-05-29T02:02:11;42.97;38.55;50.83;;
74234;Laerm;62591;55.764;37.718;2023-05-29T02:04:49;45.99;38.98;54.19;;
74234;Laerm;62591;55.764;37.718;2023-05-29T02:07:41;46.39;38.64;54.13;;
74234;Laerm;62591;55.764;37.718;2023-05-29T02:10:10;44.21;39.12;55.84;;
74234;Laerm;62591;55.764;37.718;2023-05-29T02:12:40;44.04;38.96;53.71;;
74234;Laerm;62591;55.764;37.718;2023-05-29T02:15:10;43.85;38.32;52.43;;
74234;Laerm;62591;55.764;37.718;2023-05-29T02:17:39;45.72;39.00;58.56;;
74234;Laerm;62591;55.764;37.718;2023-05-29T02:20:10;45.63;39.40;56.07;;
74234;Laerm;62591;55.764;37.718;2023-05-29T02:22:39;43.59;38.56;56.75;;
74234;Laerm;62591;55.764;37.718;2023-05-29T02:25:09;45.60;39.68;51.83;;
74234;Laerm;62591;55.764;37.718;2023-05-29T02:27:38;44.09;39.73;51.12;;
74234;Laerm;62591;55.764;37.718;2023-05-29T02:30:22;46.38;39.54;58.37;;
74234;Laerm;62591;55.764;37.718;2023-05-29T02:32:50;44.50;39.37;52.91;;
74234;Laerm;62591;55.764;37.718;2023-05-29T02:35:19;47.44;39.51;59.49;;
74234;Laerm;62591;55.764;37.718;2023-05-29T02:38:08;44.06;38.73;54.06;;
74234;Laerm;62591;55.764;37.718;2023-05-29T02:40:54;47.15;40.78;59.20;;
74234;Laerm;62591;55.764;37.718;2023-05-29T02:43:25;45.77;40.85;52.05;;
74234;Laerm;62591;55.764;37.718;2023-05-29T02:46:09;47.15;40.36;56.62;;
74234;Laerm;62591;55.764;37.718;2023-05-29T02:48:38;45.42;39.62;53.22;;
74234;Laerm;62591;55.764;37.718;2023-05-29T02:51:33;47.49;41.52;58.42;;
74234;Laerm;62591;55.764;37.718;2023-05-29T02:54:18;45.78;39.52;56.17;;
74234;Laerm;62591;55.764;37.718;2023-05-29T02:56:47;47.43;39.29;56.42;;
74234;Laerm;62591;55.764;37.718;2023-05-29T02:59:16;47.74;39.12;58.41;;
74234;Laerm;62591;55.764;37.718;2023-05-29T03:01:46;46.96;39.61;53.33;;
74234;Laerm;62591;55.764;37.718;2023-05-29T03:04:29;47.56;39.15;57.19;;
74234;Laerm;62591;55.764;37.718;2023-05-29T03:06:58;47.90;40.41;55.66;;
74234;Laerm;62591;55.764;37.718;2023-05-29T03:09:27;45.54;39.08;52.66;;
74234;Laerm;62591;55.764;37.718;2023-05-29T03:11:56;47.57;39.69;54.02;;
74234;Laerm;62591;55.764;37.718;2023-05-29T03:14:25;46.87;38.63;54.24;;
74234;Laerm;62591;55.764;37.718;2023-05-29T03:16:56;46.92;39.87;55.76;;
74234;Laerm;62591;55.764;37.718;2023-05-29T03:19:26;47.50;38.36;57.69;;
74234;Laerm;62591;55.764;37.718;2023-05-29T03:21:55;46.23;38.11;55.67;;
74234;Laerm;62591;55.764;37.718;2023-05-29T03:24:24;46.23;39.37;55.19;;
74234;Laerm;62591;55.764;37.718;2023-05-29T03:26:52;47.12;39.34;53.25;;
74234;Laerm;62591;55.764;37.718;2023-05-29T03:29:38;48.73;39.50;57.88;;
74234;Laerm;62591;55.764;37.718;2023-05-29T03:32:22;47.20;41.05;56.04;;
74234;Laerm;62591;55.764;37.718;2023-05-29T03:34:51;48.76;39.00;64.85;;
74234;Laerm;62591;55.764;37.718;2023-05-29T03:37:19;47.85;39.79;55.83;;
74234;Laerm;62591;55.764;37.718;2023-05-29T03:40:02;48.10;39.30;62.35;;
74234;Laerm;62591;55.764;37.718;2023-05-29T03:42:31;47.26;40.35;54.88;;
74234;Laerm;62591;55.764;37.718;2023-05-29T03:45:01;48.96;42.08;55.42;;
74234;Laerm;62591;55.764;37.718;2023-05-29T03:47:48;46.84;39.35;62.91;;
74234;Laerm;62591;55.764;37.718;2023-05-29T03:50:17;46.20;38.59;57.73;;
74234;Laerm;62591;55.764;37.718;2023-05-29T03:53:12;47.71;37.53;54.61;;
74234;Laerm;62591;55.764;37.718;2023-05-29T03:55:43;47.75;39.45;53.54;;
74234;Laerm;62591;55.764;37.718;2023-05-29T03:58:26;47.90;38.60;58.25;;
74234;Laerm;62591;55.764;37.718;2023-05-29T04:00:55;47.91;39.77;54.83;;
74234;Laerm;62591;55.764;37.718;2023-05-29T04:03:40;48.37;39.66;58.94;;
74234;Laerm;62591;55.764;37.718;2023-05-29T04:06:24;46.42;38.92;52.45;;
74234;Laerm;62591;55.764;37.718;2023-05-29T04:09:08;49.00;41.61;61.09;;
74234;Laerm;62591;55.764;37.718;2023-05-29T04:11:37;48.40;38.96;57.35;;
74234;Laerm;62591;55.764;37.718;2023-05-29T04:14:20;47.69;40.35;56.95;;
74234;Laerm;62591;55.764;37.718;2023-05-29T04:16:49;48.72;39.70;55.84;;
74234;Laerm;62591;55.764;37.718;2023-05-29T04:19:36;47.02;39.23;55.91;;
74234;Laerm;62591;55.764;37.718;2023-05-29T04:22:05;46.48;40.02;53.09;;
74234;Laerm;62591;55.764;37.718;2023-05-29T04:24:33;46.65;38.80;55.46;;
74234;Laerm;62591;55.764;37.718;2023-05-29T04:27:03;46.38;38.53;57.23;;
74234;Laerm;62591;55.764;37.718;2023-05-29T04:29:31;46.93;39.90;57.95;;
74234;Laerm;62591;55.764;37.718;2023-05-29T04:32:01;48.09;40.34;64.98;;
74234;Laerm;62591;55.764;37.718;2023-05-29T04:34:31;49.24;40.39;60.62;;
74234;Laerm;62591;55.764;37.718;2023-05-29T04:37:01;49.30;41.12;62.20;;
74234;Laerm;62591;55.764;37.718;2023-05-29T04:39:44;48.97;40.38;72.54;;
74234;Laerm;62591;55.764;37.718;2023-05-29T04:42:20;47.60;41.04;54.80;;
74234;Laerm;62591;55.764;37.718;2023-05-29T04:44:50;46.94;38.78;58.55;;
74234;Laerm;62591;55.764;37.718;2023-05-29T04:47:19;50.48;40.50;77.95;;
74234;Laerm;62591;55.764;37.718;2023-05-29T04:49:49;48.28;40.95;63.96;;
74234;Laerm;62591;55.764;37.718;2023-05-29T04:52:20;49.53;40.81;55.20;;
74234;Laerm;62591;55.764;37.718;2023-05-29T04:55:06;51.49;41.35;75.73;;
74234;Laerm;62591;55.764;37.718;2023-05-29T04:57:35;47.54;39.23;62.87;;
74234;Laerm;62591;55.764;37.718;2023-05-29T05:00:07;48.10;39.54;54.90;;
74234;Laerm;62591;55.764;37.718;2023-05-29T05:02:44;48.34;39.41;57.39;;
74234;Laerm;62591;55.764;37.718;2023-05-29T05:05:13;50.72;39.68;62.81;;
74234;Laerm;62591;55.764;37.718;2023-05-29T05:07:43;48.67;41.39;59.12;;
74234;Laerm;62591;55.764;37.718;2023-05-29T05:10:13;48.74;40.62;54.68;;
74234;Laerm;62591;55.764;37.718;2023-05-29T05:12:41;47.87;40.15;55.95;;
74234;Laerm;62591;55.764;37.718;2023-05-29T05:15:10;49.52;43.99;55.88;;
74234;Laerm;62591;55.764;37.718;2023-05-29T05:17:54;51.34;46.47;59.80;;
74234;Laerm;62591;55.764;37.718;2023-05-29T05:20:23;50.48;39.86;60.24;;
74234;Laerm;62591;55.764;37.718;2023-05-29T05:22:58;47.55;37.52;60.10;;
74234;Laerm;62591;55.764;37.718;2023-05-29T05:25:28;51.79;46.43;62.82;;
74234;Laerm;62591;55.764;37.718;2023-05-29T05:28:14;51.74;41.43;62.00;;
74234;Laerm;62591;55.764;37.718;2023-05-29T05:30:44;48.80;41.19;74.01;;
74234;Laerm;62591;55.764;37.718;2023-05-29T05:33:13;49.60;39.69;58.19;;
74234;Laerm;62591;55.764;37.718;2023-05-29T05:35:42;48.24;40.04;63.11;;
74234;Laerm;62591;55.764;37.718;2023-05-29T05:38:12;51.49;38.42;78.21;;
74234;Laerm;62591;55.764;37.718;2023-05-29T05:40:41;51.78;38.61;67.25;;
74234;Laerm;62591;55.764;37.718;2023-05-29T05:43:19;48.67;42.65;58.23;;
74234;Laerm;62591;55.764;37.718;2023-05-29T05:46:08;52.39;44.09;68.16;;
74234;Laerm;62591;55.764;37.718;2023-05-29T05:48:37;48.47;42.18;57.34;;
74234;Laerm;62591;55.764;37.718;2023-05-29T05:51:06;59.17;43.94;73.05;;
74234;Laerm;62591;55.764;37.718;2023-05-29T05:53:58;48.04;41.57;55.72;;
74234;Laerm;62591;55.764;37.718;2023-05-29T05:56:28;49.35;44.42;57.70;;
74234;Laerm;62591;55.764;37.718;2023-05-29T05:58:57;46.17;40.30;54.19;;
74234;Laerm;62591;55.764;37.718;2023-05-29T06:01:25;50.18;40.89;62.68;;
74234;Laerm;62591;55.764;37.718;2023-05-29T06:03:54;49.22;42.51;64.44;;
74234;Laerm;62591;55.764;37.718;2023-05-29T06:06:23;47.76;42.58;56.47;;
74234;Laerm;62591;55.764;37.718;2023-05-29T06:08:52;48.20;40.70;53.67;;
74234;Laerm;62591;55.764;37.718;2023-05-29T06:11:23;49.74;41.92;66.90;;
74234;Laerm;62591;55.764;37.718;2023-05-29T06:14:12;48.57;38.51;64.06;;
74234;Laerm;62591;55.764;37.718;2023-05-29T06:16:42;48.19;41.12;63.58;;
74234;Laerm;62591;55.764;37.718;2023-05-29T06:19:11;54.97;43.20;73.05;;
74234;Laerm;62591;55.764;37.718;2023-05-29T06:21:55;49.02;41.43;59.60;;
74234;Laerm;62591;55.764;37.718;2023-05-29T06:24:23;49.39;44.13;55.49;;
74234;Laerm;62591;55.764;37.718;2023-05-29T06:26:55;49.57;43.50;62.21;;
74234;Laerm;62591;55.764;37.718;2023-05-29T06:29:24;47.87;42.34;54.03;;
74234;Laerm;62591;55.764;37.718;2023-05-29T06:31:53;48.92;41.58;61.37;;
74234;Laerm;62591;55.764;37.718;2023-05-29T06:34:22;49.94;40.43;70.89;;
74234;Laerm;62591;55.764;37.718;2023-05-29T06:37:10;47.89;40.77;57.55;;
74234;Laerm;62591;55.764;37.718;2023-05-29T06:39:39;50.38;40.13;64.28;;
74234;Laerm;62591;55.764;37.718;2023-05-29T06:42:10;53.81;42.79;68.71;;
74234;Laerm;62591;55.764;37.718;2023-05-29T06:45:08;47.22;40.29;64.44;;
74234;Laerm;62591;55.764;37.718;2023-05-29T06:47:38;48.24;42.21;54.85;;
74234;Laerm;62591;55.764;37.718;2023-05-29T06:50:08;48.59;42.03;57.21;;
74234;Laerm;62591;55.764;37.718;2023-05-29T06:52:38;49.32;40.78;69.47;;
74234;Laerm;62591;55.764;37.718;2023-05-29T06:55:36;48.36;39.55;63.12;;
74234;Laerm;62591;55.764;37.718;2023-05-29T06:58:06;50.81;41.37;66.29;;
74234;Laerm;62591;55.764;37.718;2023-05-29T07:04:23;64.94;44.24;80.71;;
74234;Laerm;62591;55.764;37.718;2023-05-29T07:06:52;49.11;41.08;60.44;;
74234;Laerm;62591;55.764;37.718;2023-05-29T07:09:21;50.84;43.58;64.98;;
74234;Laerm;62591;55.764;37.718;2023-05-29T07:11:49;50.49;40.29;63.43;;
74234;Laerm;62591;55.764;37.718;2023-05-29T07:14:20;47.79;39.54;54.08;;
74234;Laerm;62591;55.764;37.718;2023-05-29T07:16:49;49.29;41.33;61.28;;
74234;Laerm;62591;55.764;37.718;2023-05-29T07:19:17;51.95;45.48;69.50;;
74234;Laerm;62591;55.764;37.718;2023-05-29T07:21:49;50.92;42.24;61.97;;
74234;Laerm;62591;55.764;37.718;2023-05-29T07:24:20;49.80;39.80;61.95;;
74234;Laerm;62591;55.764;37.718;2023-05-29T07:26:50;48.52;42.21;58.33;;
74234;Laerm;62591;55.764;37.718;2023-05-29T07:29:20;47.80;40.41;57.68;;
74234;Laerm;62591;55.764;37.718;2023-05-29T07:31:50;48.74;41.85;58.08;;
74234;Laerm;62591;55.764;37.718;2023-05-29T07:34:21;48.49;41.31;59.49;;
74234;Laerm;62591;55.764;37.718;2023-05-29T07:36:57;50.44;43.60;61.54;;
74234;Laerm;62591;55.764;37.718;2023-05-29T07:39:27;52.68;38.83;66.35;;
74234;Laerm;62591;55.764;37.718;2023-05-29T07:41:59;49.58;43.25;56.99;;
74234;Laerm;62591;55.764;37.718;2023-05-29T07:44:30;50.52;41.45;68.98;;
74234;Laerm;62591;55.764;37.718;2023-05-29T07:46:58;48.46;42.88;60.22;;
74234;Laerm;62591;55.764;37.718;2023-05-29T07:49:44;48.16;40.55;59.55;;
74234;Laerm;62591;55.764;37.718;2023-05-29T07:52:14;48.58;41.61;62.68;;
74234;Laerm;62591;55.764;37.718;2023-05-29T07:54:42;49.01;42.26;61.46;;
74234;Laerm;62591;55.764;37.718;2023-05-29T07:57:15;50.25;43.89;61.15;;
74234;Laerm;62591;55.764;37.718;2023-05-29T07:59:45;50.24;43.00;66.22;;
74234;Laerm;62591;55.764;37.718;2023-05-29T08:02:17;50.24;42.50;63.84;;
74234;Laerm;62591;55.764;37.718;2023-05-29T08:05:06;51.50;43.67;66.66;;
74234;Laerm;62591;55.764;37.718;2023-05-29T08:07:36;50.37;43.90;64.91;;
74234;Laerm;62591;55.764;37.718;2023-05-29T08:10:06;51.06;42.56;66.17;;
74234;Laerm;62591;55.764;37.718;2023-05-29T08:12:35;49.59;42.45;66.33;;
74234;Laerm;62591;55.764;37.718;2023-05-29T08:15:07;50.75;41.11;65.12;;
74234;Laerm;62591;55.764;37.718;2023-05-29T08:17:37;51.03;42.17;67.89;;
74234;Laerm;62591;55.764;37.718;2023-05-29T08:20:06;49.68;44.09;65.47;;
74234;Laerm;62591;55.764;37.718;2023-05-29T08:22:37;51.12;42.10;67.37;;
74234;Laerm;62591;55.764;37.718;2023-05-29T08:25:06;50.26;41.96;63.37;;
74234;Laerm;62591;55.764;37.718;2023-05-29T08:27:35;50.27;43.32;64.79;;
74234;Laerm;62591;55.764;37.718;2023-05-29T08:30:06;50.82;40.92;68.18;;
74234;Laerm;62591;55.764;37.718;2023-05-29T08:32:35;49.65;42.06;64.07;;
74234;Laerm;62591;55.764;37.718;2023-05-29T08:35:04;49.15;42.27;62.65;;
74234;Laerm;62591;55.764;37.718;2023-05-29T08:37:33;48.59;41.58;64.38;;
74234;Laerm;62591;55.764;37.718;2023-05-29T08:40:02;50.00;40.87;60.41;;
74234;Laerm;62591;55.764;37.718;2023-05-29T08:42:39;50.93;43.22;66.27;;
74234;Laerm;62591;55.764;37.718;2023-05-29T08:45:13;50.36;42.63;64.61;;
74234;Laerm;62591;55.764;37.718;2023-05-29T08:47:43;48.52;41.79;64.43;;
74234;Laerm;62591;55.764;37.718;2023-05-29T08:50:14;47.66;41.57;56.73;;
74234;Laerm;62591;55.764;37.718;2023-05-29T08:52:44;47.33;40.86;57.01;;
74234;Laerm;62591;55.764;37.718;2023-05-29T08:55:12;49.44;42.61;59.39;;
74234;Laerm;62591;55.764;37.718;2023-05-29T08:57:41;46.98;41.61;54.44;;
74234;Laerm;62591;55.764;37.718;2023-05-29T09:00:13;48.59;41.70;60.00;;
74234;Laerm;62591;55.764;37.718;2023-05-29T09:02:47;51.05;43.10;62.85;;
74234;Laerm;62591;55.764;37.718;2023-05-29T09:05:16;49.49;42.63;59.31;;
74234;Laerm;62591;55.764;37.718;2023-05-29T09:07:45;47.92;42.41;53.13;;
74234;Laerm;62591;55.764;37.718;2023-05-29T09:10:14;48.51;43.05;55.38;;
74234;Laerm;62591;55.764;37.718;2023-05-29T09:12:42;47.83;42.72;57.37;;
74234;Laerm;62591;55.764;37.718;2023-05-29T09:15:19;48.79;43.75;59.37;;
74234;Laerm;62591;55.764;37.718;2023-05-29T09:17:51;48.84;42.75;55.40;;
74234;Laerm;62591;55.764;37.718;2023-05-29T09:20:21;49.51;43.16;63.39;;
74234;Laerm;62591;55.764;37.718;2023-05-29T09:22:55;50.47;43.74;63.28;;
74234;Laerm;62591;55.764;37.718;2023-05-29T09:25:26;51.01;42.15;58.02;;
74234;Laerm;62591;55.764;37.718;2023-05-29T09:27:56;49.95;43.01;62.31;;
74234;Laerm;62591;55.764;37.718;2023-05-29T09:30:34;50.55;44.36;61.95;;
74234;Laerm;62591;55.764;37.718;2023-05-29T09:33:04;48.81;38.19;57.01;;
74234;Laerm;62591;55.764;37.718;2023-05-29T09:35:37;49.23;39.36;63.55;;
74234;Laerm;62591;55.764;37.718;2023-05-29T09:38:07;51.04;43.61;66.02;;
74234;Laerm;62591;55.764;37.718;2023-05-29T09:40:37;51.30;45.19;59.53;;
74234;Laerm;62591;55.764;37.718;2023-05-29T09:43:10;49.40;42.68;62.28;;
74234;Laerm;62591;55.764;37.718;2023-05-29T09:45:41;49.61;41.34;57.03;;
74234;Laerm;62591;55.764;37.718;2023-05-29T09:48:13;50.94;45.48;59.07;;
74234;Laerm;62591;55.764;37.718;2023-05-29T09:50:44;51.86;43.27;64.27;;
74234;Laerm;62591;55.764;37.718;2023-05-29T09:53:19;49.43;41.55;59.99;;
74234;Laerm;62591;55.764;37.718;2023-05-29T09:55:49;48.24;41.54;57.08;;
74234;Laerm;62591;55.764;37.718;2023-05-29T09:58:18;50.92;43.54;58.92;;
74234;Laerm;62591;55.764;37.718;2023-05-29T10:00:49;47.95;41.30;56.63;;
74234;Laerm;62591;55.764;37.718;2023-05-29T10:03:19;51.54;43.51;61.09;;
74234;Laerm;62591;55.764;37.718;2023-05-29T10:05:51;47.82;41.28;60.42;;
74234;Laerm;62591;55.764;37.718;2023-05-29T10:08:20;49.66;42.58;59.61;;
74234;Laerm;62591;55.764;37.718;2023-05-29T10:10:55;46.56;39.99;53.87;;
74234;Laerm;62591;55.764;37.718;2023-05-29T10:13:32;47.67;41.54;60.99;;
74234;Laerm;62591;55.764;37.718;2023-05-29T10:16:08;50.59;40.75;64.92;;
74234;Laerm;62591;55.764;37.718;2023-05-29T10:18:37;48.74;40.89;59.91;;
74234;Laerm;62591;55.764;37.718;2023-05-29T10:21:07;47.99;39.93;55.95;;
74234;Laerm;62591;55.764;37.718;2023-05-29T10:23:37;50.68;45.83;55.99;;
74234;Laerm;62591;55.764;37.718;2023-05-29T10:26:10;50.04;46.20;57.91;;
74234;Laerm;62591;55.764;37.718;2023-05-29T10:28:45;48.93;41.55;64.06;;
74234;Laerm;62591;55.764;37.718;2023-05-29T10:31:20;48.11;42.16;64.14;;
74234;Laerm;62591;55.764;37.718;2023-05-29T10:34:00;49.61;44.48;56.95;;
74234;Laerm;62591;55.764;37.718;2023-05-29T10:36:34;50.07;42.58;62.96;;
74234;Laerm;62591;55.764;37.718;2023-05-29T10:39:04;49.95;41.60;62.33;;
74234;Laerm;62591;55.764;37.718;2023-05-29T10:41:33;48.82;42.77;61.40;;
74234;Laerm;62591;55.764;37.718;2023-05-29T10:44:39;50.93;42.00;66.76;;
74234;Laerm;62591;55.764;37.718;2023-05-29T10:47:12;50.99;46.33;56.79;;
74234;Laerm;62591;55.764;37.718;2023-05-29T10:49:51;51.31;45.23;66.88;;
74234;Laerm;62591;55.764;37.718;2023-05-29T10:52:19;50.96;41.30;63.31;;
74234;Laerm;62591;55.764;37.718;2023-05-29T10:54:53;50.29;43.20;58.72;;
74234;Laerm;62591;55.764;37.718;2023-05-29T10:57:24;51.07;43.85;62.12;;
74234;Laerm;62591;55.764;37.718;2023-05-29T11:00:02;49.64;41.04;60.75;;
74234;Laerm;62591;55.764;37.718;2023-05-29T11:02:38;50.86;43.58;78.19;;
74234;Laerm;62591;55.764;37.718;2023-05-29T11:05:19;49.09;39.87;67.32;;
74234;Laerm;62591;55.764;37.718;2023-05-29T11:07:55;48.94;39.34;60.54;;
74234;Laerm;62591;55.764;37.718;2023-05-29T11:10:43;46.97;40.96;58.92;;
74234;Laerm;62591;55.764;37.718;2023-05-29T11:13:24;50.78;40.56;60.56;;
74234;Laerm;62591;55.764;37.718;2023-05-29T11:16:11;46.17;38.14;56.80;;
74234;Laerm;62591;55.764;37.718;2023-05-29T11:18:44;47.64;41.81;59.83;;
74234;Laerm;62591;55.764;37.718;2023-05-29T11:21:30;46.16;39.68;61.00;;
74234;Laerm;62591;55.764;37.718;2023-05-29T11:24:02;48.02;40.52;63.54;;
74234;Laerm;62591;55.764;37.718;2023-05-29T11:26:37;47.54;41.02;62.05;;
74234;Laerm;62591;55.764;37.718;2023-05-29T11:29:06;46.80;39.63;53.77;;
74234;Laerm;62591;55.764;37.718;2023-05-29T11:31:39;47.72;40.47;56.12;;
74234;Laerm;62591;55.764;37.718;2023-05-29T11:34:14;48.02;41.13;57.90;;
74234;Laerm;62591;55.764;37.718;2023-05-29T11:36:44;49.08;42.31;60.22;;
74234;Laerm;62591;55.764;37.718;2023-05-29T11:39:14;53.06;41.76;79.86;;
74234;Laerm;62591;55.764;37.718;2023-05-29T11:41:43;50.31;40.58;58.92;;
74234;Laerm;62591;55.764;37.718;2023-05-29T11:44:13;49.15;39.93;58.85;;
74234;Laerm;62591;55.764;37.718;2023-05-29T11:46:42;49.69;40.97;60.34;;
74234;Laerm;62591;55.764;37.718;2023-05-29T11:49:12;49.58;42.72;57.61;;
74234;Laerm;62591;55.764;37.718;2023-05-29T11:51:42;48.92;40.68;60.37;;
74234;Laerm;62591;55.764;37.718;2023-05-29T11:54:12;47.76;40.89;54.37;;
74234;Laerm;62591;55.764;37.718;2023-05-29T11:56:41;50.52;42.47;58.13;;
74234;Laerm;62591;55.764;37.718;2023-05-29T11:59:11;47.74;40.24;55.21;;
74234;Laerm;62591;55.764;37.718;2023-05-29T12:01:39;47.03;41.51;55.39;;
74234;Laerm;62591;55.764;37.718;2023-05-29T12:04:16;48.67;40.05;62.08;;
74234;Laerm;62591;55.764;37.718;2023-05-29T12:06:44;48.51;41.27;56.75;;
74234;Laerm;62591;55.764;37.718;2023-05-29T12:09:26;49.34;41.79;61.21;;
74234;Laerm;62591;55.764;37.718;2023-05-29T12:12:01;48.57;41.18;57.88;;
74234;Laerm;62591;55.764;37.718;2023-05-29T12:14:30;47.60;38.94;63.98;;
74234;Laerm;62591;55.764;37.718;2023-05-29T12:16:59;45.98;39.26;63.86;;
74234;Laerm;62591;55.764;37.718;2023-05-29T12:19:29;46.79;39.99;57.39;;
74234;Laerm;62591;55.764;37.718;2023-05-29T12:21:58;45.32;37.63;57.18;;
74234;Laerm;62591;55.764;37.718;2023-05-29T12:24:27;49.12;40.30;58.79;;
74234;Laerm;62591;55.764;37.718;2023-05-29T12:27:09;47.10;40.41;63.32;;
74234;Laerm;62591;55.764;37.718;2023-05-29T12:29:38;48.49;40.97;62.97;;
74234;Laerm;62591;55.764;37.718;2023-05-29T12:32:09;47.50;38.77;56.88;;
74234;Laerm;62591;55.764;37.718;2023-05-29T12:34:40;47.20;40.22;63.69;;
74234;Laerm;62591;55.764;37.718;2023-05-29T12:37:09;48.18;40.75;60.83;;
74234;Laerm;62591;55.764;37.718;2023-05-29T12:39:41;49.41;41.46;68.48;;
74234;Laerm;62591;55.764;37.718;2023-05-29T12:42:11;49.17;41.08;61.75;;
74234;Laerm;62591;55.764;37.718;2023-05-29T12:44:42;48.97;43.48;56.34;;
74234;Laerm;62591;55.764;37.718;2023-05-29T12:47:13;47.82;42.06;59.17;;
74234;Laerm;62591;55.764;37.718;2023-05-29T12:49:45;48.12;42.45;64.23;;
74234;Laerm;62591;55.764;37.718;2023-05-29T12:52:13;47.30;39.76;60.03;;
74234;Laerm;62591;55.764;37.718;2023-05-29T12:54:43;49.13;40.54;62.96;;
74234;Laerm;62591;55.764;37.718;2023-05-29T12:57:11;48.07;41.58;62.29;;
74234;Laerm;62591;55.764;37.718;2023-05-29T12:59:40;47.14;40.43;53.56;;
74234;Laerm;62591;55.764;37.718;2023-05-29T13:02:08;46.46;39.75;54.69;;
74234;Laerm;62591;55.764;37.718;2023-05-29T13:04:37;48.70;40.86;57.59;;
74234;Laerm;62591;55.764;37.718;2023-05-29T13:07:08;49.63;39.74;59.28;;
74234;Laerm;62591;55.764;37.718;2023-05-29T13:09:36;50.52;39.05;59.06;;
74234;Laerm;62591;55.764;37.718;2023-05-29T13:12:05;49.17;39.90;68.29;;
74234;Laerm;62591;55.764;37.718;2023-05-29T13:14:34;46.88;38.55;58.79;;
74234;Laerm;62591;55.764;37.718;2023-05-29T13:17:03;48.04;42.03;57.29;;
74234;Laerm;62591;55.764;37.718;2023-05-29T13:19:31;47.87;39.40;61.07;;
74234;Laerm;62591;55.764;37.718;2023-05-29T13:22:00;49.95;42.35;60.83;;
74234;Laerm;62591;55.764;37.718;2023-05-29T13:24:30;49.08;38.98;65.48;;
74234;Laerm;62591;55.764;37.718;2023-05-29T13:26:59;50.29;41.26;58.80;;
74234;Laerm;62591;55.764;37.718;2023-05-29T13:29:29;47.77;41.41;56.53;;
74234;Laerm;62591;55.764;37.718;2023-05-29T13:31:58;47.26;40.08;55.88;;
74234;Laerm;62591;55.764;37.718;2023-05-29T13:34:27;48.46;43.94;62.68;;
74234;Laerm;62591;55.764;37.718;2023-05-29T13:36:56;46.28;39.91;60.72;;
74234;Laerm;62591;55.764;37.718;2023-05-29T13:39:24;48.04;39.71;63.04;;
74234;Laerm;62591;55.764;37.718;2023-05-29T13:41:54;47.85;41.41;61.67;;
74234;Laerm;62591;55.764;37.718;2023-05-29T13:44:23;49.28;42.24;65.56;;
74234;Laerm;62591;55.764;37.718;2023-05-29T13:46:52;48.84;41.87;60.03;;
74234;Laerm;62591;55.764;37.718;2023-05-29T13:49:20;48.42;41.99;62.15;;
74234;Laerm;62591;55.764;37.718;2023-05-29T13:51:49;48.68;41.68;58.39;;
74234;Laerm;62591;55.764;37.718;2023-05-29T13:54:18;50.38;41.88;61.26;;
74234;Laerm;62591;55.764;37.718;2023-05-29T13:56:46;50.45;42.84;68.58;;
74234;Laerm;62591;55.764;37.718;2023-05-29T13:59:16;47.97;40.00;62.38;;
74234;Laerm;62591;55.764;37.718;2023-05-29T14:01:45;48.18;41.49;59.04;;
74234;Laerm;62591;55.764;37.718;2023-05-29T14:04:14;49.92;43.75;64.78;;
74234;Laerm;62591;55.764;37.718;2023-05-29T14:06:44;49.81;43.21;62.05;;
74234;Laerm;62591;55.764;37.718;2023-05-29T14:09:16;50.62;40.45;65.29;;